Time;durP1;ratioP1;P1;durP2;ratioP2;P2;SDS_P1;SDS_P2;PMS_P1;PMS_P2;Temp;Humidity;BMP_temperature;BMP_pressure;BME280_temperature;BME280_humidity;BME280_pressure;Samples;Min_cycle;Max_cycle;Signal;HPM_P1;HPM_P2
2021/05/08 00:00:35;;;;;;;0.38;0.38;;;;;;;;;;5049006;28;20165;-70
2021/05/08 00:03:02;;;;;;;0.32;0.30;;;;;;;;;;5048929;28;20181;-70
2021/05/08 00:05:28;;;;;;;0.10;0.10;;;;;;;;;;5030751;28;20201;-70
2021/05/08 00:07:55;;;;;;;0.10;0.10;;;;;;;;;;5048794;28;20197;-70
2021/05/08 00:10:21;;;;;;;0.10;0.10;;;;;;;;;;5031044;28;20180;-70
2021/05/08 00:12:48;;;;;;;0.10;0.10;;;;;;;;;;5048895;28;20154;-70
2021/05/08 00:15:15;;;;;;;0.20;0.20;;;;;;;;;;5030915;28;20193;-70
2021/05/08 00:17:42;;;;;;;2.50;1.40;;;;;;;;;;5048607;28;20579;-70
2021/05/08 00:20:09;;;;;;;0.20;0.20;;;;;;;;;;5030890;28;20196;-70
2021/05/08 00:22:35;;;;;;;0.77;0.77;;;;;;;;;;5048539;28;20276;-70
2021/05/08 00:25:01;;;;;;;0.10;0.10;;;;;;;;;;5030833;28;20169;-72
2021/05/08 00:27:27;;;;;;;0.20;0.20;;;;;;;;;;5048484;28;20296;-71
2021/05/08 00:29:54;;;;;;;0.20;0.20;;;;;;;;;;5048555;28;20582;-71
2021/05/08 00:32:20;;;;;;;0.10;0.10;;;;;;;;;;5048519;28;20608;-71
2021/05/08 00:34:46;;;;;;;0.10;0.10;;;;;;;;;;5048501;28;20165;-71
2021/05/08 00:37:12;;;;;;;0.20;0.20;;;;;;;;;;5030647;28;20180;-71
2021/05/08 00:39:38;;;;;;;0.10;0.10;;;;;;;;;;5048438;28;20158;-71
2021/05/08 00:42:05;;;;;;;0.30;0.30;;;;;;;;;;5030546;28;20251;-70
2021/05/08 00:44:31;;;;;;;0.10;0.10;;;;;;;;;;5048322;28;20172;-71
2021/05/08 00:46:58;;;;;;;0.20;0.20;;;;;;;;;;5048099;28;20216;-71
2021/05/08 00:49:27;;;;;;;1.63;1.55;;;;;;;;;;5030585;28;20165;-71
2021/05/08 00:51:54;;;;;;;0.10;0.10;;;;;;;;;;5048243;28;20165;-71
2021/05/08 00:54:20;;;;;;;0.20;0.20;;;;;;;;;;5030360;28;20169;-71
2021/05/08 00:56:47;;;;;;;0.40;0.40;;;;;;;;;;5048028;28;20224;-71
2021/05/08 00:59:13;;;;;;;0.22;0.22;;;;;;;;;;5030342;28;20179;-71
2021/05/08 01:01:40;;;;;;;0.20;0.20;;;;;;;;;;5030326;28;20191;-72
2021/05/08 01:04:07;;;;;;;0.10;0.10;;;;;;;;;;5048045;28;20304;-71
2021/05/08 01:06:33;;;;;;;0.10;0.10;;;;;;;;;;5048021;28;20265;-69
2021/05/08 01:09:00;;;;;;;0.50;0.50;;;;;;;;;;5030205;28;20169;-70
2021/05/08 01:11:26;;;;;;;0.20;0.20;;;;;;;;;;5048032;28;20247;-70
2021/05/08 01:13:53;;;;;;;0.00;0.00;;;;;;;;;;5030256;28;20550;-72
2021/05/08 01:16:19;;;;;;;0.17;0.17;;;;;;;;;;5032077;28;20197;-69
2021/05/08 01:18:51;;;;;;;0.20;0.20;;;;;;;;;;5034150;28;20169;-72
2021/05/08 01:21:19;;;;;;;0.32;0.32;;;;;;;;;;5051930;28;20169;-70
2021/05/08 01:23:47;;;;;;;0.32;0.32;;;;;;;;;;5051764;28;20228;-70
2021/05/08 01:26:13;;;;;;;0.43;0.43;;;;;;;;;;5051839;28;20667;-71
2021/05/08 01:28:39;;;;;;;1.40;0.88;;;;;;;;;;5051972;28;20189;-70
2021/05/08 01:31:06;;;;;;;0.13;0.13;;;;;;;;;;5034117;28;20169;-70
2021/05/08 01:33:32;;;;;;;0.20;0.20;;;;;;;;;;5051826;28;20169;-70
2021/05/08 01:35:58;;;;;;;0.10;0.10;;;;;;;;;;5033856;28;20262;-69
2021/05/08 01:38:25;;;;;;;0.17;0.17;;;;;;;;;;5027731;28;20190;-69
2021/05/08 01:40:59;;;;;;;0.20;0.20;;;;;;;;;;4994626;28;20178;-69
2021/05/08 01:43:25;;;;;;;0.30;0.30;;;;;;;;;;4994652;28;20171;-70
2021/05/08 01:45:51;;;;;;;0.10;0.10;;;;;;;;;;4994535;28;20186;-70
2021/05/08 01:48:18;;;;;;;0.20;0.20;;;;;;;;;;5011920;28;20275;-70
2021/05/08 01:50:44;;;;;;;0.28;0.28;;;;;;;;;;4994572;28;20163;-70
2021/05/08 01:53:10;;;;;;;0.10;0.10;;;;;;;;;;5012073;28;20256;-70
2021/05/08 01:55:36;;;;;;;0.20;0.20;;;;;;;;;;5012075;28;20170;-70
2021/05/08 01:58:03;;;;;;;0.20;0.20;;;;;;;;;;5011882;28;20167;-70
2021/05/08 02:00:31;;;;;;;0.20;0.20;;;;;;;;;;4994238;28;20202;-69
2021/05/08 02:02:58;;;;;;;0.20;0.20;;;;;;;;;;5011889;28;20210;-70
2021/05/08 02:05:27;;;;;;;0.20;0.20;;;;;;;;;;5012111;28;20163;-69
2021/05/08 02:07:54;;;;;;;0.40;0.38;;;;;;;;;;5011784;28;20190;-69
2021/05/08 02:10:20;;;;;;;0.30;0.30;;;;;;;;;;4994110;28;20195;-70
2021/05/08 02:12:46;;;;;;;0.20;0.20;;;;;;;;;;4994117;28;20225;-69
2021/05/08 02:15:14;;;;;;;0.50;0.50;;;;;;;;;;5011622;28;20162;-69
2021/05/08 02:17:41;;;;;;;0.10;0.10;;;;;;;;;;5011649;28;20563;-70
2021/05/08 02:20:08;;;;;;;0.20;0.20;;;;;;;;;;4993905;28;20324;-69
2021/05/08 02:22:34;;;;;;;0.20;0.20;;;;;;;;;;5011285;28;20219;-69
2021/05/08 02:25:01;;;;;;;0.43;0.43;;;;;;;;;;5011311;28;20213;-70
2021/05/08 02:27:28;;;;;;;0.28;0.28;;;;;;;;;;5011260;28;20222;-70
2021/05/08 02:29:54;;;;;;;0.20;0.20;;;;;;;;;;4993630;28;20202;-70
2021/05/08 02:32:20;;;;;;;0.20;0.20;;;;;;;;;;5011382;28;20163;-71
2021/05/08 02:34:46;;;;;;;0.10;0.10;;;;;;;;;;5011310;28;20167;-70
2021/05/08 02:37:12;;;;;;;0.13;0.13;;;;;;;;;;5011382;28;20178;-71
2021/05/08 02:39:39;;;;;;;0.22;0.22;;;;;;;;;;5011090;28;20205;-72
2021/05/08 02:42:05;;;;;;;0.20;0.20;;;;;;;;;;5011395;28;20231;-70
2021/05/08 02:44:31;;;;;;;0.10;0.10;;;;;;;;;;4993421;28;20502;-70
2021/05/08 02:46:57;;;;;;;0.90;0.90;;;;;;;;;;5010828;28;20190;-70
2021/05/08 02:49:23;;;;;;;0.30;0.30;;;;;;;;;;5010739;28;20194;-71
2021/05/08 02:51:49;;;;;;;0.10;0.10;;;;;;;;;;5011138;28;20285;-71
2021/05/08 02:54:16;;;;;;;0.55;0.55;;;;;;;;;;4993103;28;20258;-71
2021/05/08 02:56:42;;;;;;;0.10;0.10;;;;;;;;;;4993256;28;20178;-70
2021/05/08 02:59:09;;;;;;;0.45;0.45;;;;;;;;;;4993049;28;20199;-71
2021/05/08 03:01:35;;;;;;;0.28;0.28;;;;;;;;;;4993827;28;20221;-70
2021/05/08 03:04:01;;;;;;;0.10;0.10;;;;;;;;;;4994182;28;20179;-70
2021/05/08 03:06:27;;;;;;;0.20;0.20;;;;;;;;;;5011362;28;20235;-70
2021/05/08 03:08:53;;;;;;;0.20;0.20;;;;;;;;;;4994032;28;20195;-69
2021/05/08 03:11:20;;;;;;;0.38;0.38;;;;;;;;;;4994160;28;20174;-70
2021/05/08 03:13:46;;;;;;;0.15;0.15;;;;;;;;;;5011530;28;20226;-70
2021/05/08 03:16:12;;;;;;;0.10;0.10;;;;;;;;;;4993880;28;20202;-69
2021/05/08 03:18:38;;;;;;;0.10;0.10;;;;;;;;;;4994084;28;20286;-69
2021/05/08 03:21:05;;;;;;;0.75;0.75;;;;;;;;;;4994498;28;20175;-69
2021/05/08 03:23:31;;;;;;;0.20;0.20;;;;;;;;;;4982592;28;20597;-70
2021/05/08 03:25:57;;;;;;;0.25;0.25;;;;;;;;;;4990835;28;20238;-69
2021/05/08 03:28:23;;;;;;;0.10;0.10;;;;;;;;;;4991713;28;20198;-72
2021/05/08 03:30:49;;;;;;;0.20;0.20;;;;;;;;;;4973961;28;20547;-71
2021/05/08 03:33:15;;;;;;;0.55;0.55;;;;;;;;;;4990639;28;20160;-72
2021/05/08 03:35:42;;;;;;;0.35;0.35;;;;;;;;;;4972899;28;20186;-72
2021/05/08 03:38:08;;;;;;;0.20;0.20;;;;;;;;;;4972101;28;20243;-72
2021/05/08 03:40:34;;;;;;;0.35;0.35;;;;;;;;;;4990288;28;20174;-72
2021/05/08 03:43:00;;;;;;;0.10;0.10;;;;;;;;;;4972806;28;20200;-72
2021/05/08 03:45:27;;;;;;;0.20;0.20;;;;;;;;;;4972749;28;20351;-71
2021/05/08 03:47:53;;;;;;;0.10;0.10;;;;;;;;;;4990212;28;20183;-71
2021/05/08 03:50:20;;;;;;;1.55;0.93;;;;;;;;;;4990062;28;20194;-72
2021/05/08 03:52:46;;;;;;;0.43;0.43;;;;;;;;;;4990181;28;20233;-71
2021/05/08 03:55:12;;;;;;;0.10;0.10;;;;;;;;;;4990053;28;20171;-71
2021/05/08 03:57:38;;;;;;;0.10;0.10;;;;;;;;;;4972531;28;20189;-70
2021/05/08 04:00:05;;;;;;;0.10;0.10;;;;;;;;;;4972396;28;20214;-70
2021/05/08 04:02:31;;;;;;;0.13;0.13;;;;;;;;;;4972614;28;20267;-70
2021/05/08 04:04:58;;;;;;;0.10;0.10;;;;;;;;;;4972551;28;20238;-71
2021/05/08 04:07:24;;;;;;;0.10;0.10;;;;;;;;;;4972523;28;20199;-70
2021/05/08 04:09:50;;;;;;;0.47;0.47;;;;;;;;;;4989885;28;20306;-73
2021/05/08 04:12:16;;;;;;;0.10;0.10;;;;;;;;;;4972324;28;20184;-70
2021/05/08 04:14:42;;;;;;;0.20;0.20;;;;;;;;;;4989756;28;20159;-70
2021/05/08 04:17:09;;;;;;;0.60;0.57;;;;;;;;;;4989592;28;20170;-71
2021/05/08 04:19:35;;;;;;;0.10;0.10;;;;;;;;;;4972114;28;20203;-71
2021/05/08 04:22:01;;;;;;;0.35;0.35;;;;;;;;;;4989597;28;20657;-71
2021/05/08 04:24:27;;;;;;;0.20;0.20;;;;;;;;;;4971867;28;20227;-71
2021/05/08 04:26:53;;;;;;;0.30;0.30;;;;;;;;;;4989398;28;20199;-71
2021/05/08 04:29:20;;;;;;;0.20;0.20;;;;;;;;;;4989394;28;20191;-70
2021/05/08 04:31:46;;;;;;;0.20;0.20;;;;;;;;;;4989381;28;20171;-69
2021/05/08 04:34:12;;;;;;;1.50;1.40;;;;;;;;;;4971938;28;20179;-69
2021/05/08 04:36:39;;;;;;;0.68;0.68;;;;;;;;;;4989296;28;20191;-69
2021/05/08 04:39:05;;;;;;;0.10;0.10;;;;;;;;;;4989262;28;20676;-70
2021/05/08 04:41:31;;;;;;;0.20;0.20;;;;;;;;;;4971704;28;20193;-72
2021/05/08 04:43:57;;;;;;;0.10;0.10;;;;;;;;;;4971823;28;20234;-71
2021/05/08 04:46:24;;;;;;;0.20;0.20;;;;;;;;;;4989230;28;20187;-70
2021/05/08 04:48:54;;;;;;;0.20;0.20;;;;;;;;;;4989245;28;20214;-70
2021/05/08 04:51:21;;;;;;;0.10;0.10;;;;;;;;;;4970892;28;20218;-70
2021/05/08 04:53:48;;;;;;;0.30;0.30;;;;;;;;;;4989253;28;20163;-70
2021/05/08 04:56:15;;;;;;;0.10;0.10;;;;;;;;;;4989094;28;20668;-70
2021/05/08 04:58:43;;;;;;;0.25;0.25;;;;;;;;;;4971529;28;20203;-70
2021/05/08 05:01:12;;;;;;;0.30;0.30;;;;;;;;;;4989005;28;20582;-69
2021/05/08 05:03:38;;;;;;;0.52;0.52;;;;;;;;;;4971586;28;20191;-70
2021/05/08 05:06:05;;;;;;;0.20;0.20;;;;;;;;;;4971664;28;20281;-69
2021/05/08 05:08:31;;;;;;;0.10;0.10;;;;;;;;;;4988793;28;20235;-69
2021/05/08 05:10:57;;;;;;;0.20;0.20;;;;;;;;;;4988901;28;20159;-70
2021/05/08 05:13:24;;;;;;;0.10;0.10;;;;;;;;;;4971404;28;20260;-70
2021/05/08 05:15:50;;;;;;;0.25;0.25;;;;;;;;;;4971502;28;20182;-70
2021/05/08 05:18:17;;;;;;;0.20;0.20;;;;;;;;;;4988849;28;20214;-70
2021/05/08 05:20:44;;;;;;;0.90;0.90;;;;;;;;;;4988905;28;20626;-69
2021/05/08 05:23:10;;;;;;;0.50;0.38;;;;;;;;;;4980040;28;20732;-69
2021/05/08 05:25:37;;;;;;;0.10;0.10;;;;;;;;;;5008217;28;20222;-69
2021/05/08 05:28:03;;;;;;;0.10;0.10;;;;;;;;;;5007655;28;20198;-71
2021/05/08 05:30:29;;;;;;;0.10;0.10;;;;;;;;;;5008223;28;20544;-71
2021/05/08 05:32:56;;;;;;;0.10;0.10;;;;;;;;;;4990690;28;20355;-70
2021/05/08 05:35:22;;;;;;;0.17;0.17;;;;;;;;;;5008102;28;20163;-70
2021/05/08 05:37:48;;;;;;;0.30;0.30;;;;;;;;;;4990639;28;20171;-71
2021/05/08 05:40:14;;;;;;;0.65;0.65;;;;;;;;;;5008134;28;20281;-71
2021/05/08 05:42:41;;;;;;;0.10;0.10;;;;;;;;;;4990470;28;20189;-71
2021/05/08 05:45:07;;;;;;;0.93;0.85;;;;;;;;;;4990452;28;20249;-71
2021/05/08 05:47:33;;;;;;;0.20;0.20;;;;;;;;;;4990473;28;20194;-71
2021/05/08 05:49:59;;;;;;;0.30;0.30;;;;;;;;;;5007999;28;20222;-71
2021/05/08 05:52:27;;;;;;;1.83;0.43;;;;;;;;;;5008037;28;20155;-71
2021/05/08 05:54:54;;;;;;;0.32;0.32;;;;;;;;;;5007942;28;20722;-71
2021/05/08 05:57:20;;;;;;;0.25;0.25;;;;;;;;;;5008126;28;20151;-70
2021/05/08 05:59:46;;;;;;;0.45;0.45;;;;;;;;;;5007846;28;20198;-70
2021/05/08 06:02:13;;;;;;;0.10;0.10;;;;;;;;;;4992037;28;20246;-71
2021/05/08 06:04:39;;;;;;;0.30;0.30;;;;;;;;;;5011586;28;20234;-71
2021/05/08 06:07:06;;;;;;;0.40;0.40;;;;;;;;;;4993977;28;20687;-71
2021/05/08 06:09:32;;;;;;;0.28;0.28;;;;;;;;;;5011478;28;20194;-71
2021/05/08 06:11:59;;;;;;;0.10;0.10;;;;;;;;;;4993606;28;20289;-71
2021/05/08 06:14:26;;;;;;;0.95;0.40;;;;;;;;;;4993907;28;20217;-71
2021/05/08 06:16:55;;;;;;;0.75;0.57;;;;;;;;;;5011421;28;20195;-71
2021/05/08 06:19:22;;;;;;;0.35;0.35;;;;;;;;;;5011283;28;20194;-71
2021/05/08 06:21:48;;;;;;;1.75;1.15;;;;;;;;;;5011215;28;20177;-72
2021/05/08 06:24:14;;;;;;;1.00;0.28;;;;;;;;;;5011684;28;20233;-70
2021/05/08 06:26:40;;;;;;;0.28;0.28;;;;;;;;;;5004247;28;20214;-70
2021/05/08 06:29:06;;;;;;;0.45;0.45;;;;;;;;;;5035854;28;20212;-70
2021/05/08 06:31:33;;;;;;;0.43;0.43;;;;;;;;;;5028719;28;20209;-71
2021/05/08 06:33:59;;;;;;;0.20;0.20;;;;;;;;;;5029854;28;20166;-70
2021/05/08 06:36:25;;;;;;;0.10;0.10;;;;;;;;;;5021790;28;20193;-70
2021/05/08 06:38:51;;;;;;;0.13;0.13;;;;;;;;;;5010765;28;20182;-71
2021/05/08 06:41:18;;;;;;;1.25;1.23;;;;;;;;;;5010533;28;20178;-70
2021/05/08 06:43:44;;;;;;;0.30;0.30;;;;;;;;;;5010677;28;20159;-71
2021/05/08 06:46:10;;;;;;;0.10;0.10;;;;;;;;;;5009870;28;20163;-70
2021/05/08 06:48:36;;;;;;;0.15;0.15;;;;;;;;;;5010366;28;20214;-70
2021/05/08 06:51:06;;;;;;;1.65;1.55;;;;;;;;;;5010390;28;20251;-68
2021/05/08 06:53:32;;;;;;;0.30;0.30;;;;;;;;;;4992533;28;20251;-70
2021/05/08 06:55:59;;;;;;;2.30;0.95;;;;;;;;;;4992228;28;20178;-69
2021/05/08 06:58:25;;;;;;;0.20;0.20;;;;;;;;;;5009842;28;20162;-70
2021/05/08 07:00:51;;;;;;;0.10;0.10;;;;;;;;;;5011727;28;20174;-70
2021/05/08 07:03:17;;;;;;;0.20;0.20;;;;;;;;;;5029686;28;20565;-69
2021/05/08 07:05:43;;;;;;;0.60;0.60;;;;;;;;;;5011504;28;20170;-70
2021/05/08 07:08:11;;;;;;;0.40;0.40;;;;;;;;;;5011668;28;20194;-70
2021/05/08 07:10:50;;;;;;;0.10;0.10;;;;;;;;;;5029656;28;20174;-69
2021/05/08 07:13:16;;;;;;;0.60;0.60;;;;;;;;;;5011029;28;20194;-69
2021/05/08 07:15:43;;;;;;;3.28;0.35;;;;;;;;;;5011265;28;20562;-68
2021/05/08 07:18:09;;;;;;;0.50;0.50;;;;;;;;;;5011540;28;20234;-69
2021/05/08 07:20:37;;;;;;;0.77;0.68;;;;;;;;;;5011586;28;20692;-69
2021/05/08 07:23:03;;;;;;;0.43;0.43;;;;;;;;;;5003256;28;20274;-71
2021/05/08 07:25:30;;;;;;;0.52;0.40;;;;;;;;;;5009301;28;20680;-70
2021/05/08 07:28:10;;;;;;;0.28;0.28;;;;;;;;;;5009250;28;20261;-71
2021/05/08 07:30:36;;;;;;;0.10;0.10;;;;;;;;;;5009863;28;20206;-70
2021/05/08 07:33:03;;;;;;;0.20;0.20;;;;;;;;;;4992011;28;20233;-70
2021/05/08 07:35:29;;;;;;;0.40;0.40;;;;;;;;;;5009833;28;20191;-71
2021/05/08 07:37:56;;;;;;;2.25;0.50;;;;;;;;;;4992274;28;20186;-70
2021/05/08 07:40:22;;;;;;;0.28;0.28;;;;;;;;;;5009894;28;20170;-71
2021/05/08 07:42:48;;;;;;;1.40;1.38;;;;;;;;;;5009783;28;20173;-71
2021/05/08 07:45:15;;;;;;;0.45;0.30;;;;;;;;;;4992146;28;20253;-71
2021/05/08 07:47:41;;;;;;;0.60;0.38;;;;;;;;;;4992145;28;20198;-70
2021/05/08 07:50:08;;;;;;;0.10;0.10;;;;;;;;;;5009422;28;20175;-69
2021/05/08 07:52:35;;;;;;;0.32;0.32;;;;;;;;;;5009451;28;20186;-68
2021/05/08 07:55:01;;;;;;;0.88;0.30;;;;;;;;;;5009538;28;20178;-68
2021/05/08 07:57:28;;;;;;;5.18;1.25;;;;;;;;;;5009463;28;20218;-67
2021/05/08 07:59:54;;;;;;;0.10;0.10;;;;;;;;;;5009218;28;20187;-67
2021/05/08 08:02:21;;;;;;;0.10;0.10;;;;;;;;;;5009216;28;20198;-67
2021/05/08 08:04:47;;;;;;;0.35;0.35;;;;;;;;;;5009318;28;20162;-72
2021/05/08 08:07:13;;;;;;;0.17;0.17;;;;;;;;;;5009067;28;20276;-72
2021/05/08 08:09:42;;;;;;;0.52;0.52;;;;;;;;;;5009116;28;20246;-74
2021/05/08 08:12:08;;;;;;;1.17;0.80;;;;;;;;;;5008599;28;20205;-74
2021/05/08 08:14:34;;;;;;;0.35;0.35;;;;;;;;;;5009157;28;20248;-79
2021/05/08 08:17:00;;;;;;;0.45;0.45;;;;;;;;;;4990482;28;20174;-81
2021/05/08 08:19:26;;;;;;;0.00;0.00;;;;;;;;;;5008253;28;20178;-80
2021/05/08 08:21:53;;;;;;;0.25;0.25;;;;;;;;;;5007123;28;20221;-81
2021/05/08 08:24:19;;;;;;;0.52;0.45;;;;;;;;;;5007278;28;20229;-81
2021/05/08 08:26:45;;;;;;;0.65;0.65;;;;;;;;;;5028125;28;20204;-80
2021/05/08 08:29:11;;;;;;;0.30;0.30;;;;;;;;;;5011417;28;20192;-81
2021/05/08 08:31:37;;;;;;;0.88;0.73;;;;;;;;;;5028688;28;20162;-80
2021/05/08 08:34:04;;;;;;;0.80;0.80;;;;;;;;;;5028484;28;20198;-79
2021/05/08 08:36:30;;;;;;;0.25;0.25;;;;;;;;;;5028498;28;20154;-80
2021/05/08 08:38:56;;;;;;;0.70;0.63;;;;;;;;;;5028366;28;20332;-80
2021/05/08 08:41:23;;;;;;;0.47;0.47;;;;;;;;;;5027176;28;20229;-79
2021/05/08 08:43:49;;;;;;;0.20;0.20;;;;;;;;;;5028199;28;20667;-82
2021/05/08 08:46:17;;;;;;;0.45;0.45;;;;;;;;;;5027178;28;20193;-82
2021/05/08 08:48:43;;;;;;;1.25;0.73;;;;;;;;;;5028178;28;20197;-82
2021/05/08 08:51:10;;;;;;;0.20;0.20;;;;;;;;;;5028261;28;20229;-82
2021/05/08 08:53:37;;;;;;;0.35;0.35;;;;;;;;;;5026802;28;20201;-82
2021/05/08 08:56:05;;;;;;;0.20;0.20;;;;;;;;;;5028178;28;20212;-82
2021/05/08 08:58:35;;;;;;;0.40;0.40;;;;;;;;;;5028334;28;20208;-80
2021/05/08 09:01:03;;;;;;;0.20;0.20;;;;;;;;;;5027759;28;20208;-80
2021/05/08 09:03:30;;;;;;;0.17;0.17;;;;;;;;;;5027804;28;20180;-82
2021/05/08 09:05:57;;;;;;;0.40;0.40;;;;;;;;;;5027620;28;20342;-77
2021/05/08 09:08:23;;;;;;;0.70;0.32;;;;;;;;;;5010246;28;20201;-80
2021/05/08 09:10:51;;;;;;;0.73;0.70;;;;;;;;;;5010111;28;20166;-77
2021/05/08 09:13:22;;;;;;;0.28;0.28;;;;;;;;;;5028141;28;20222;-76
2021/05/08 09:15:51;;;;;;;0.68;0.68;;;;;;;;;;5027914;28;20162;-76
2021/05/08 09:18:37;;;;;;;0.28;0.28;;;;;;;;;;5028061;28;20221;-76
2021/05/08 09:21:04;;;;;;;0.10;0.10;;;;;;;;;;5027895;28;20260;-78
2021/05/08 09:23:32;;;;;;;0.38;0.38;;;;;;;;;;5027785;28;20229;-76
2021/05/08 09:25:59;;;;;;;0.43;0.30;;;;;;;;;;5010082;28;20166;-75
2021/05/08 09:28:28;;;;;;;0.43;0.43;;;;;;;;;;5009953;28;20202;-75
2021/05/08 09:30:54;;;;;;;0.13;0.13;;;;;;;;;;5009993;28;20611;-75
2021/05/08 09:33:21;;;;;;;0.20;0.20;;;;;;;;;;5009823;28;20226;-74
2021/05/08 09:36:02;;;;;;;0.28;0.28;;;;;;;;;;5027727;28;20162;-75
2021/05/08 09:38:42;;;;;;;0.60;0.60;;;;;;;;;;5031708;28;20165;-77
2021/05/08 09:41:09;;;;;;;0.40;0.40;;;;;;;;;;5032155;28;20166;-75
2021/05/08 09:43:39;;;;;;;0.40;0.40;;;;;;;;;;5013759;28;20268;-75
2021/05/08 09:46:06;;;;;;;0.20;0.20;;;;;;;;;;5031431;28;20222;-75
2021/05/08 09:48:34;;;;;;;0.10;0.10;;;;;;;;;;5031251;28;20304;-75
2021/05/08 09:51:25;;;;;;;0.95;0.95;;;;;;;;;;5013606;28;20166;-75
2021/05/08 09:53:53;;;;;;;1.13;0.55;;;;;;;;;;5031216;28;20185;-75
2021/05/08 09:56:38;;;;;;;0.55;0.55;;;;;;;;;;5031214;28;20318;-75
2021/05/08 09:59:23;;;;;;;0.22;0.22;;;;;;;;;;5013512;28;20265;-75
2021/05/08 10:01:50;;;;;;;0.15;0.15;;;;;;;;;;5027099;28;20165;-75
2021/05/08 10:04:27;;;;;;;0.43;0.43;;;;;;;;;;5029148;28;20227;-74
2021/05/08 10:07:12;;;;;;;0.10;0.10;;;;;;;;;;5027762;28;20220;-75
2021/05/08 10:09:40;;;;;;;0.33;0.33;;;;;;;;;;4992829;28;20416;-76
2021/05/08 10:12:11;;;;;;;0.63;0.30;;;;;;;;;;5011728;28;20186;-76
2021/05/08 10:14:38;;;;;;;1.35;0.52;;;;;;;;;;5007708;28;20232;-78
2021/05/08 10:17:05;;;;;;;0.63;0.40;;;;;;;;;;5030614;28;20176;-79
2021/05/08 10:19:32;;;;;;;0.10;0.10;;;;;;;;;;5013137;28;20173;-80
2021/05/08 10:21:59;;;;;;;0.15;0.15;;;;;;;;;;5030801;28;20181;-79
2021/05/08 10:24:26;;;;;;;0.13;0.13;;;;;;;;;;5012669;28;20233;-79
2021/05/08 10:26:59;;;;;;;0.10;0.10;;;;;;;;;;5030324;28;20196;-79
2021/05/08 10:29:30;;;;;;;0.30;0.30;;;;;;;;;;5013105;28;20170;-80
2021/05/08 10:31:58;;;;;;;0.35;0.35;;;;;;;;;;5012345;28;20208;-77
2021/05/08 10:34:50;;;;;;;0.00;0.00;;;;;;;;;;5030315;28;20165;-77
2021/05/08 10:37:16;;;;;;;0.10;0.10;;;;;;;;;;5012653;28;20168;-76
2021/05/08 10:39:57;;;;;;;0.25;0.25;;;;;;;;;;5030351;28;20253;-78
2021/05/08 10:42:35;;;;;;;0.43;0.43;;;;;;;;;;5030132;28;20303;-81
2021/05/08 10:45:05;;;;;;;0.40;0.40;;;;;;;;;;5030459;28;20177;-76
2021/05/08 10:47:50;;;;;;;0.10;0.10;;;;;;;;;;5012144;28;20194;-73
2021/05/08 10:50:38;;;;;;;0.10;0.10;;;;;;;;;;5028334;28;20314;-78
2021/05/08 10:53:08;;;;;;;0.10;0.10;;;;;;;;;;5009583;28;20201;-77
2021/05/08 10:55:53;;;;;;;1.17;0.40;;;;;;;;;;5027318;28;20280;-77
2021/05/08 10:58:22;;;;;;;0.00;0.00;;;;;;;;;;5029381;28;20182;-76
2021/05/08 11:00:56;;;;;;;0.28;0.28;;;;;;;;;;5008652;28;20213;-76
2021/05/08 11:03:23;;;;;;;0.38;0.38;;;;;;;;;;5029432;28;20189;-78
2021/05/08 11:05:53;;;;;;;0.03;0.03;;;;;;;;;;5029381;28;20288;-78
2021/05/08 11:08:28;;;;;;;0.10;0.10;;;;;;;;;;5029219;28;20636;-77
2021/05/08 11:11:03;;;;;;;0.00;0.00;;;;;;;;;;5028884;28;20169;-77
2021/05/08 11:13:45;;;;;;;0.10;0.10;;;;;;;;;;5011012;28;20208;-76
2021/05/08 11:16:11;;;;;;;0.00;0.00;;;;;;;;;;5026373;28;20161;-77
2021/05/08 11:18:41;;;;;;;0.32;0.32;;;;;;;;;;5009640;28;20177;-77
2021/05/08 11:21:13;;;;;;;0.03;0.03;;;;;;;;;;5028557;28;20221;-76
2021/05/08 11:23:43;;;;;;;0.32;0.32;;;;;;;;;;5014544;28;20241;-76
2021/05/08 11:26:30;;;;;;;0.35;0.35;;;;;;;;;;4991720;28;20207;-77
2021/05/08 11:29:00;;;;;;;0.38;0.38;;;;;;;;;;4993940;28;20198;-76
2021/05/08 11:31:31;;;;;;;0.45;0.28;;;;;;;;;;4991479;28;20186;-76
2021/05/08 11:34:07;;;;;;;0.10;0.10;;;;;;;;;;4992004;28;20190;-77
2021/05/08 11:36:42;;;;;;;0.10;0.10;;;;;;;;;;5008983;28;20632;-79
2021/05/08 11:39:09;;;;;;;2.13;0.68;;;;;;;;;;5009353;28;20629;-78
2021/05/08 11:41:36;;;;;;;0.10;0.10;;;;;;;;;;5009158;28;20213;-78
2021/05/08 11:44:02;;;;;;;0.13;0.13;;;;;;;;;;5009621;28;20323;-77
2021/05/08 11:46:30;;;;;;;0.52;0.52;;;;;;;;;;5009115;28;20176;-77
2021/05/08 11:48:56;;;;;;;0.00;0.00;;;;;;;;;;4991360;28;20174;-78
2021/05/08 11:51:23;;;;;;;0.20;0.20;;;;;;;;;;4991266;28;20174;-77
2021/05/08 11:54:08;;;;;;;0.30;0.30;;;;;;;;;;5008319;28;20639;-77
2021/05/08 11:56:35;;;;;;;0.20;0.20;;;;;;;;;;5008056;28;20197;-78
2021/05/08 11:59:02;;;;;;;0.10;0.10;;;;;;;;;;5008597;28;20292;-78
2021/05/08 12:01:32;;;;;;;0.28;0.28;;;;;;;;;;4991674;28;20174;-76
2021/05/08 12:04:00;;;;;;;0.13;0.13;;;;;;;;;;4990962;28;20333;-76
2021/05/08 12:06:27;;;;;;;0.50;0.50;;;;;;;;;;4991280;28;20240;-77
2021/05/08 12:08:54;;;;;;;0.25;0.25;;;;;;;;;;4989670;28;20213;-79
2021/05/08 12:11:20;;;;;;;0.10;0.10;;;;;;;;;;5008516;28;20170;-79
2021/05/08 12:13:47;;;;;;;0.50;0.50;;;;;;;;;;5008086;28;20203;-76
2021/05/08 12:16:14;;;;;;;0.63;0.45;;;;;;;;;;4991208;28;20163;-78
2021/05/08 12:18:41;;;;;;;0.20;0.20;;;;;;;;;;5008536;28;20178;-78
2021/05/08 12:21:08;;;;;;;0.60;0.60;;;;;;;;;;5008443;28;20238;-79
2021/05/08 12:23:36;;;;;;;0.20;0.20;;;;;;;;;;5020344;28;20508;-77
2021/05/08 12:26:19;;;;;;;0.43;0.43;;;;;;;;;;5028285;28;20165;-77
2021/05/08 12:28:45;;;;;;;0.10;0.10;;;;;;;;;;5028035;28;20193;-78
2021/05/08 12:31:20;;;;;;;0.10;0.10;;;;;;;;;;5010361;28;20182;-79
2021/05/08 12:33:47;;;;;;;0.00;0.00;;;;;;;;;;5027931;28;20268;-77
2021/05/08 12:36:14;;;;;;;0.10;0.10;;;;;;;;;;5028256;28;20210;-78
2021/05/08 12:38:41;;;;;;;0.30;0.30;;;;;;;;;;5027711;28;20443;-77
2021/05/08 12:41:29;;;;;;;0.20;0.20;;;;;;;;;;5010321;28;20165;-79
2021/05/08 12:44:02;;;;;;;0.20;0.20;;;;;;;;;;5010589;28;20265;-77
2021/05/08 12:46:28;;;;;;;0.35;0.35;;;;;;;;;;5029172;28;20169;-78
2021/05/08 12:49:05;;;;;;;2.05;0.65;;;;;;;;;;5010640;28;20637;-77
2021/05/08 12:51:38;;;;;;;0.30;0.30;;;;;;;;;;5010500;28;20256;-78
2021/05/08 12:54:21;;;;;;;0.13;0.13;;;;;;;;;;5028653;28;20216;-78
2021/05/08 12:56:48;;;;;;;1.45;0.63;;;;;;;;;;5027760;28;20158;-77
2021/05/08 12:59:27;;;;;;;0.10;0.10;;;;;;;;;;5010132;28;20173;-77
2021/05/08 13:01:55;;;;;;;0.28;0.28;;;;;;;;;;5024832;28;20184;-78
2021/05/08 13:04:36;;;;;;;0.10;0.10;;;;;;;;;;5028018;28;20193;-78
2021/05/08 13:07:22;;;;;;;0.17;0.17;;;;;;;;;;5006997;28;20191;-79
2021/05/08 13:09:49;;;;;;;0.10;0.10;;;;;;;;;;5008868;28;20189;-78
2021/05/08 13:12:18;;;;;;;0.22;0.22;;;;;;;;;;5009396;28;20261;-78
2021/05/08 13:14:44;;;;;;;0.30;0.30;;;;;;;;;;5027890;28;20177;-79
2021/05/08 13:17:10;;;;;;;0.63;0.50;;;;;;;;;;5027937;28;20162;-78
2021/05/08 13:19:36;;;;;;;0.22;0.22;;;;;;;;;;5027967;28;20162;-79
2021/05/08 13:22:03;;;;;;;0.10;0.10;;;;;;;;;;5027726;28;20181;-78
2021/05/08 13:24:34;;;;;;;0.30;0.30;;;;;;;;;;5027863;28;20666;-79
2021/05/08 13:27:01;;;;;;;0.30;0.30;;;;;;;;;;5009861;28;20206;-78
2021/05/08 13:29:27;;;;;;;0.15;0.15;;;;;;;;;;5009868;28;20178;-78
2021/05/08 13:31:53;;;;;;;2.20;0.80;;;;;;;;;;5010021;28;20166;-78
2021/05/08 13:34:20;;;;;;;1.55;0.73;;;;;;;;;;5027560;28;20181;-78
2021/05/08 13:36:47;;;;;;;0.10;0.10;;;;;;;;;;5010091;28;20627;-79
2021/05/08 13:39:13;;;;;;;1.20;0.50;;;;;;;;;;5026675;28;20162;-78
2021/05/08 13:41:40;;;;;;;0.20;0.20;;;;;;;;;;5010029;28;20168;-79
2021/05/08 13:44:07;;;;;;;0.30;0.30;;;;;;;;;;5028046;28;20158;-78
2021/05/08 13:46:37;;;;;;;2.80;0.90;;;;;;;;;;5009828;28;20221;-78
2021/05/08 13:49:03;;;;;;;0.13;0.13;;;;;;;;;;5027570;28;20150;-78
2021/05/08 13:51:30;;;;;;;0.22;0.13;;;;;;;;;;5027473;28;20166;-78
2021/05/08 13:53:56;;;;;;;0.17;0.17;;;;;;;;;;5027584;28;20532;-78
2021/05/08 13:56:22;;;;;;;0.28;0.28;;;;;;;;;;5027383;28;20190;-79
2021/05/08 13:58:48;;;;;;;0.43;0.43;;;;;;;;;;5027332;28;20182;-79
2021/05/08 14:01:14;;;;;;;0.10;0.10;;;;;;;;;;5006320;28;20258;-80
2021/05/08 14:03:41;;;;;;;0.20;0.20;;;;;;;;;;5007865;28;20198;-76
2021/05/08 14:06:07;;;;;;;0.35;0.35;;;;;;;;;;5002213;28;20232;-78
2021/05/08 14:08:33;;;;;;;0.10;0.10;;;;;;;;;;5027168;28;20202;-80
2021/05/08 14:11:01;;;;;;;0.82;0.82;;;;;;;;;;5027152;28;20269;-80
2021/05/08 14:13:27;;;;;;;0.20;0.20;;;;;;;;;;5006288;28;20196;-79
2021/05/08 14:15:54;;;;;;;0.20;0.20;;;;;;;;;;4993033;28;20704;-79
2021/05/08 14:18:20;;;;;;;0.45;0.45;;;;;;;;;;5009397;28;20249;-79
2021/05/08 14:20:46;;;;;;;0.98;0.98;;;;;;;;;;5027583;28;20235;-78
2021/05/08 14:23:12;;;;;;;0.35;0.35;;;;;;;;;;5028493;28;20225;-78
2021/05/08 14:25:38;;;;;;;2.22;1.33;;;;;;;;;;5012886;28;20251;-79
2021/05/08 14:28:04;;;;;;;0.10;0.10;;;;;;;;;;5030445;28;20190;-78
2021/05/08 14:30:31;;;;;;;0.52;0.50;;;;;;;;;;5030637;28;20218;-79
2021/05/08 14:32:57;;;;;;;0.28;0.28;;;;;;;;;;5013053;28;20202;-78
2021/05/08 14:35:23;;;;;;;0.65;0.65;;;;;;;;;;5030636;28;20201;-78
2021/05/08 14:37:49;;;;;;;0.10;0.10;;;;;;;;;;5031061;28;20224;-80
2021/05/08 14:40:15;;;;;;;0.05;0.05;;;;;;;;;;5033952;28;20166;-79
2021/05/08 14:42:41;;;;;;;0.10;0.10;;;;;;;;;;5016069;28;20208;-80
2021/05/08 14:45:08;;;;;;;0.10;0.10;;;;;;;;;;5013814;28;20278;-79
2021/05/08 14:47:35;;;;;;;0.10;0.10;;;;;;;;;;5032489;28;20281;-75